This is the latest recevied weather packets stored in our database for station/object LU3HGB-WX. If no packets are shown the sender has not sent any weather packets the latest 10 day(s).
| Time | Temp. | Humidity | Pressure | Rain* | Wind** | Luminosity | Snow |
|---|---|---|---|---|---|---|---|
| 1777674160 | 18.33° C | 53% | 1014 hPa | 0 mm | - | 0 W/m² | - |
| 1777673860 | 18.33° C | 56% | 1014 hPa | 0 mm | - | 0 W/m² | - |
| 1777673560 | 18.33° C | 55% | 1014 hPa | 0 mm | - | 0 W/m² | - |
| 1777673259 | 17.78° C | 55% | 1014 hPa | 0 mm | - | 0 W/m² | - |
| 1777672959 | 17.22° C | 57% | 1014 hPa | 0 mm | - | 0 W/m² | - |
| 1777672659 | 16.67° C | 71% | 1014 hPa | 0 mm | - | 1 W/m² | - |
| 1777672360 | 17.22° C | 70% | 1014 hPa | 0 mm | - | 2 W/m² | - |
| 1777672059 | 17.78° C | 70% | 1014 hPa | 0 mm | - | 3 W/m² | - |
| 1777671760 | 18.33° C | 71% | 1013 hPa | 0 mm | - | 6 W/m² | - |
| 1777671461 | 18.33° C | 69% | 1013 hPa | 0 mm | - | 10 W/m² | - |
| 1777671159 | 18.89° C | 66% | 1013 hPa | 0 mm | - | 14 W/m² | - |
| 1777670859 | 19.44° C | 63% | 1013 hPa | 0 mm | - | 19 W/m² | - |
| 1777670559 | 20° C | 61% | 1013 hPa | 0 mm | - | 22 W/m² | - |
| 1777670261 | 20° C | 61% | 1013 hPa | 0 mm | - | 25 W/m² | - |
| 1777669959 | 20.56° C | 58% | 1013 hPa | 0 mm | - | 28 W/m² | - |
| 1777669659 | 20.56° C | 58% | 1013 hPa | 0 mm | - | 31 W/m² | - |
| 1777669359 | 21.11° C | 57% | 1013 hPa | 0 mm | - | 33 W/m² | - |
| 1777669059 | 21.11° C | 55% | 1013 hPa | 0 mm | - | 36 W/m² | - |
| 1777668760 | 21.67° C | 54% | 1013 hPa | 0 mm | - | 38 W/m² | - |
| 1777668459 | 21.67° C | 53% | 1013 hPa | 0 mm | - | 49 W/m² | - |
| 1777668160 | 22.22° C | 52% | 1013 hPa | 0 mm | - | 128 W/m² | - |
| 1777667860 | 22.22° C | 51% | 1013 hPa | 0 mm | - | 144 W/m² | - |
| 1777667559 | 22.78° C | 50% | 1013 hPa | 0 mm | - | 160 W/m² | - |
| 1777667260 | 23.33° C | 50% | 1013 hPa | 0 mm | - | 176 W/m² | - |
| 1777666960 | 23.33° C | 48% | 1013 hPa | 0 mm | - | 196 W/m² | - |
* Rain latest hour (hover to see other rain measurements)
** Current wind speed in m/s (hover to see current wind gust speed)